createdAt,value
2023-04-15T00:00:02.379Z,2.60
2023-04-15T00:01:03.383Z,2.56
2023-04-15T00:02:02.463Z,2.51
2023-04-15T00:03:02.611Z,2.47
2023-04-15T00:04:02.454Z,2.43
2023-04-15T00:05:02.381Z,2.39
2023-04-15T00:06:02.489Z,2.35
2023-04-15T00:07:02.317Z,2.34
2023-04-15T00:08:02.312Z,2.34
2023-04-15T00:09:02.563Z,2.32
2023-04-15T00:10:02.348Z,2.30
2023-04-15T00:11:02.293Z,2.28
2023-04-15T00:12:02.274Z,2.26
2023-04-15T00:13:02.283Z,2.23
2023-04-15T00:14:02.343Z,2.22
2023-04-15T00:15:02.292Z,2.21
2023-04-15T00:16:02.446Z,2.22
2023-04-15T00:17:02.322Z,2.23
2023-04-15T00:18:02.321Z,2.25
2023-04-15T00:19:02.434Z,2.28
2023-04-15T00:20:02.224Z,2.32
2023-04-15T00:21:02.264Z,2.36
2023-04-15T00:22:02.246Z,2.42
2023-04-15T00:23:02.219Z,2.48
2023-04-15T00:24:02.182Z,2.53
2023-04-15T00:25:02.171Z,2.56
2023-04-15T00:26:02.245Z,2.57
2023-04-15T00:27:02.175Z,2.59
2023-04-15T00:28:02.199Z,2.60
2023-04-15T00:29:02.365Z,2.59
2023-04-15T00:30:02.148Z,2.58
2023-04-15T00:31:02.205Z,2.58
2023-04-15T00:32:02.100Z,2.57
2023-04-15T00:33:02.113Z,2.56
2023-04-15T00:34:02.099Z,2.53
2023-04-15T00:35:02.066Z,2.48
2023-04-15T00:36:02.099Z,2.42
2023-04-15T00:37:02.071Z,2.34
2023-04-15T00:38:02.005Z,2.27
2023-04-15T00:39:02.246Z,2.21
2023-04-15T00:40:02.003Z,2.16
2023-04-15T00:41:02.033Z,2.11
2023-04-15T00:42:02.004Z,2.06
2023-04-15T00:43:02.005Z,2.02
2023-04-15T00:44:02.011Z,1.99
2023-04-15T00:45:01.962Z,1.97
2023-04-15T00:46:01.934Z,1.94
2023-04-15T00:47:01.953Z,1.91
2023-04-15T00:48:01.974Z,1.90
2023-04-15T00:49:02.192Z,1.92
2023-04-15T00:50:01.946Z,1.96
2023-04-15T00:51:01.947Z,2.01
2023-04-15T00:52:01.876Z,2.06
2023-04-15T00:53:01.895Z,2.10
2023-04-15T00:54:02.006Z,2.11
2023-04-15T00:55:01.958Z,2.12
2023-04-15T00:56:01.856Z,2.12
2023-04-15T00:57:01.935Z,2.13
2023-04-15T00:58:01.960Z,2.13
2023-04-15T00:59:02.012Z,2.13
2023-04-15T01:00:01.787Z,2.15
2023-04-15T01:01:01.836Z,2.17
2023-04-15T01:02:01.928Z,2.20
2023-04-15T01:03:01.932Z,2.22
2023-04-15T01:04:01.855Z,2.23
2023-04-15T01:05:01.831Z,2.24
2023-04-15T01:06:03.946Z,2.25
2023-04-15T01:07:01.731Z,2.26
2023-04-15T01:08:01.736Z,2.27
2023-04-15T01:09:02.055Z,2.26
2023-04-15T01:10:01.701Z,2.24
2023-04-15T01:11:01.679Z,2.21
2023-04-15T01:12:01.759Z,2.17
2023-04-15T01:13:01.680Z,2.13
2023-04-15T01:14:01.656Z,2.08
2023-04-15T01:15:01.711Z,2.03
2023-04-15T01:16:01.667Z,1.98
2023-04-15T01:17:01.650Z,1.95
2023-04-15T01:18:01.685Z,1.93
2023-04-15T01:19:01.887Z,1.92
2023-04-15T01:20:01.750Z,1.90
2023-04-15T01:21:01.677Z,1.89
2023-04-15T01:22:01.591Z,1.87
2023-04-15T01:23:01.566Z,1.87
2023-04-15T01:24:01.598Z,1.88
2023-04-15T01:25:01.551Z,1.87
2023-04-15T01:26:01.588Z,1.84
2023-04-15T01:27:01.559Z,1.80
2023-04-15T01:28:01.570Z,1.76
2023-04-15T01:29:01.636Z,1.75
2023-04-15T01:30:01.524Z,1.75
2023-04-15T01:31:01.548Z,1.75
2023-04-15T01:32:01.478Z,1.76
2023-04-15T01:33:01.487Z,1.77
2023-04-15T01:34:01.494Z,1.78
2023-04-15T01:35:01.476Z,1.77
2023-04-15T01:36:01.444Z,1.76
2023-04-15T01:37:01.455Z,1.74
2023-04-15T01:38:01.433Z,1.74
2023-04-15T01:39:01.633Z,1.75
2023-04-15T01:40:01.435Z,1.77
2023-04-15T01:41:01.413Z,1.81
2023-04-15T01:42:01.451Z,1.86
2023-04-15T01:43:01.376Z,1.90
2023-04-15T01:44:01.378Z,1.93
2023-04-15T01:45:01.394Z,1.95
2023-04-15T01:46:01.389Z,1.98
2023-04-15T01:47:01.416Z,2.00
2023-04-15T01:48:01.357Z,2.01
2023-04-15T01:49:01.652Z,2.02
2023-04-15T01:50:01.395Z,2.03
2023-04-15T01:51:01.378Z,2.03
2023-04-15T01:52:01.294Z,2.03
2023-04-15T01:53:01.293Z,2.02
2023-04-15T01:54:01.302Z,2.01
2023-04-15T01:55:01.277Z,1.99
2023-04-15T01:56:01.264Z,1.95
2023-04-15T01:57:01.228Z,1.92
2023-04-15T01:58:01.254Z,1.89
2023-04-15T01:59:01.516Z,1.87
2023-04-15T02:00:01.278Z,1.85
2023-04-15T02:01:01.256Z,1.83
2023-04-15T02:02:01.284Z,1.82
2023-04-15T02:03:01.260Z,1.82
2023-04-15T02:04:01.265Z,1.83
2023-04-15T02:05:01.166Z,1.84
2023-04-15T02:06:01.238Z,1.86
2023-04-15T02:07:01.128Z,1.90
2023-04-15T02:08:01.125Z,1.94
2023-04-15T02:09:01.357Z,2.01
2023-04-15T02:10:01.125Z,2.09
2023-04-15T02:11:01.140Z,2.17
2023-04-15T02:12:01.111Z,2.23
2023-04-15T02:13:01.085Z,2.28
2023-04-15T02:14:01.095Z,2.32
2023-04-15T02:15:01.087Z,2.36
2023-04-15T02:16:01.070Z,2.38
2023-04-15T02:17:01.049Z,2.38
2023-04-15T02:18:01.148Z,2.39
2023-04-15T02:19:01.248Z,2.40
2023-04-15T02:20:01.050Z,2.41
2023-04-15T02:21:00.999Z,2.43
2023-04-15T02:22:01.013Z,2.44
2023-04-15T02:23:00.996Z,2.43
2023-04-15T02:24:01.002Z,2.41
2023-04-15T02:25:00.963Z,2.39
2023-04-15T02:26:00.950Z,2.37
2023-04-15T02:27:00.948Z,2.34
2023-04-15T02:28:00.945Z,2.30
2023-04-15T02:29:01.217Z,2.27
2023-04-15T02:30:00.920Z,2.22
2023-04-15T02:31:00.954Z,2.18
2023-04-15T02:32:01.053Z,2.16
2023-04-15T02:33:00.974Z,2.16
2023-04-15T02:34:00.899Z,2.17
2023-04-15T02:35:00.903Z,2.16
2023-04-15T02:36:00.921Z,2.15
2023-04-15T02:37:00.837Z,2.12
2023-04-15T02:38:00.868Z,2.11
2023-04-15T02:39:01.075Z,2.09
2023-04-15T02:40:00.843Z,2.07
2023-04-15T02:41:00.801Z,2.04
2023-04-15T02:42:00.820Z,2.01
2023-04-15T02:43:00.817Z,1.97
2023-04-15T02:44:00.833Z,1.95
2023-04-15T02:45:00.771Z,1.94
2023-04-15T02:46:00.880Z,1.94
2023-04-15T02:47:00.751Z,1.93
2023-04-15T02:48:00.790Z,1.93
2023-04-15T02:49:00.900Z,1.91
2023-04-15T02:50:00.741Z,1.89
2023-04-15T02:51:00.753Z,1.87
2023-04-15T02:52:00.721Z,1.86
2023-04-15T02:53:00.704Z,1.85
2023-04-15T02:54:00.697Z,1.84
2023-04-15T02:55:00.685Z,1.81
2023-04-15T02:56:00.672Z,1.80
2023-04-15T02:57:00.701Z,1.81
2023-04-15T02:58:00.761Z,1.82
2023-04-15T02:59:00.901Z,1.82
2023-04-15T03:00:00.616Z,1.82
2023-04-15T03:01:00.643Z,1.80
2023-04-15T03:02:00.758Z,1.76
2023-04-15T03:03:00.773Z,1.72
2023-04-15T03:04:00.768Z,1.69
2023-04-15T03:05:00.555Z,1.65
2023-04-15T03:06:00.651Z,1.62
2023-04-15T03:07:00.560Z,1.62
2023-04-15T03:08:00.519Z,1.63
2023-04-15T03:09:00.742Z,1.66
2023-04-15T03:10:00.575Z,1.68
2023-04-15T03:11:00.576Z,1.67
2023-04-15T03:12:00.489Z,1.65
2023-04-15T03:13:00.506Z,1.60
2023-04-15T03:14:00.520Z,1.56
2023-04-15T03:15:00.515Z,1.52
2023-04-15T03:16:00.477Z,1.49
2023-04-15T03:17:00.455Z,1.46
2023-04-15T03:18:00.504Z,1.45
2023-04-15T03:19:00.612Z,1.43
2023-04-15T03:20:00.460Z,1.44
2023-04-15T03:21:00.414Z,1.46
2023-04-15T03:22:00.406Z,1.49
2023-04-15T03:23:00.459Z,1.53
2023-04-15T03:24:00.403Z,1.56
2023-04-15T03:25:00.396Z,1.59
2023-04-15T03:26:00.384Z,1.61
2023-04-15T03:27:00.343Z,1.64
2023-04-15T03:28:00.335Z,1.67
2023-04-15T03:29:00.591Z,1.69
2023-04-15T03:30:00.318Z,1.69
2023-04-15T03:31:00.563Z,1.70
2023-04-15T03:32:00.311Z,1.70
2023-04-15T03:33:00.363Z,1.70
2023-04-15T03:34:00.381Z,1.67
2023-04-15T03:35:00.257Z,1.64
2023-04-15T03:36:00.292Z,1.60
2023-04-15T03:37:00.268Z,1.57
2023-04-15T03:38:00.283Z,1.54
2023-04-15T03:39:00.509Z,1.50
2023-04-15T03:40:00.215Z,1.47
2023-04-15T03:41:00.306Z,1.43
2023-04-15T03:42:00.223Z,1.39
2023-04-15T03:43:00.188Z,1.37
2023-04-15T03:44:00.221Z,1.36
2023-04-15T03:45:00.213Z,1.37
2023-04-15T03:46:01.847Z,1.38
2023-04-15T03:47:00.160Z,1.39
2023-04-15T03:48:11.389Z,1.39
2023-04-15T03:49:00.526Z,1.38
2023-04-15T03:50:00.167Z,1.37
2023-04-15T03:51:00.175Z,1.36
2023-04-15T03:52:00.146Z,1.36
2023-04-15T03:53:00.118Z,1.37
2023-04-15T03:54:00.190Z,1.39
2023-04-15T03:55:00.139Z,1.40
2023-04-15T03:56:00.135Z,1.42
2023-04-15T03:57:00.037Z,1.42
2023-04-15T03:58:00.061Z,1.42
2023-04-15T03:59:00.390Z,1.42
2023-04-15T04:00:00.057Z,1.42
2023-04-15T04:00:59.964Z,1.41
2023-04-15T04:02:00.130Z,1.40
2023-04-15T04:03:00.105Z,1.37
2023-04-15T04:04:00.078Z,1.34
2023-04-15T04:04:59.929Z,1.30
2023-04-15T04:05:59.918Z,1.24
2023-04-15T04:06:59.930Z,1.17
2023-04-15T04:07:59.890Z,1.11
2023-04-15T04:09:00.095Z,1.05
2023-04-15T04:09:59.890Z,1.00
2023-04-15T04:10:59.871Z,0.97
2023-04-15T04:11:59.867Z,0.94
2023-04-15T04:12:59.879Z,0.93
2023-04-15T04:13:59.864Z,0.94
2023-04-15T04:14:59.825Z,0.94
2023-04-15T04:15:59.892Z,0.95
2023-04-15T04:16:59.843Z,0.97
2023-04-15T04:17:59.834Z,0.99
2023-04-15T04:18:59.879Z,1.03
2023-04-15T04:19:59.858Z,1.07
2023-04-15T04:20:59.793Z,1.11
2023-04-15T04:21:59.774Z,1.14
2023-04-15T04:22:59.770Z,1.18
2023-04-15T04:23:59.759Z,1.23
2023-04-15T04:24:59.742Z,1.28
2023-04-15T04:25:59.717Z,1.33
2023-04-15T04:26:59.702Z,1.39
2023-04-15T04:27:59.703Z,1.47
2023-04-15T04:28:59.883Z,1.54
2023-04-15T04:29:59.756Z,1.61
2023-04-15T04:30:59.694Z,1.66
2023-04-15T04:31:59.692Z,1.69
2023-04-15T04:32:59.713Z,1.69
2023-04-15T04:33:59.675Z,1.67
2023-04-15T04:34:59.624Z,1.63
2023-04-15T04:35:59.643Z,1.57
2023-04-15T04:36:59.611Z,1.49
2023-04-15T04:37:59.590Z,1.42
2023-04-15T04:38:59.896Z,1.35
2023-04-15T04:39:59.602Z,1.29
2023-04-15T04:40:59.579Z,1.23
2023-04-15T04:41:59.552Z,1.19
2023-04-15T04:42:59.581Z,1.17
2023-04-15T04:43:59.600Z,1.16
2023-04-15T04:44:59.540Z,1.17
2023-04-15T04:45:59.573Z,1.18
2023-04-15T04:46:59.546Z,1.21
2023-04-15T04:47:59.609Z,1.24
2023-04-15T04:48:59.534Z,1.27
2023-04-15T04:49:59.509Z,1.29
2023-04-15T04:50:59.492Z,1.30
2023-04-15T04:51:59.464Z,1.31
2023-04-15T04:52:59.469Z,1.32
2023-04-15T04:54:00.072Z,1.33
2023-04-15T04:54:59.426Z,1.36
2023-04-15T04:55:59.471Z,1.39
2023-04-15T04:56:59.468Z,1.42
2023-04-15T04:57:59.405Z,1.46
2023-04-15T04:58:59.603Z,1.50
2023-04-15T04:59:59.394Z,1.54
2023-04-15T05:00:59.507Z,1.58
2023-04-15T05:01:59.425Z,1.62
2023-04-15T05:02:59.537Z,1.65
2023-04-15T05:03:59.427Z,1.67
2023-04-15T05:04:59.333Z,1.68
2023-04-15T05:05:59.319Z,1.69
2023-04-15T05:06:59.336Z,1.70
2023-04-15T05:07:59.362Z,1.69
2023-04-15T05:08:59.680Z,1.67
2023-04-15T05:09:59.317Z,1.64
2023-04-15T05:10:59.326Z,1.58
2023-04-15T05:11:59.261Z,1.51
2023-04-15T05:12:59.251Z,1.44
2023-04-15T05:13:59.241Z,1.39
2023-04-15T05:14:59.256Z,1.35
2023-04-15T05:15:59.338Z,1.33
2023-04-15T05:16:59.226Z,1.31
2023-04-15T05:17:59.322Z,1.30
2023-04-15T05:18:59.421Z,1.29
2023-04-15T05:19:59.229Z,1.29
2023-04-15T05:20:59.201Z,1.29
2023-04-15T05:21:59.208Z,1.30
2023-04-15T05:22:59.165Z,1.31
2023-04-15T05:23:59.175Z,1.35
2023-04-15T05:24:59.152Z,1.39
2023-04-15T05:25:59.245Z,1.45
2023-04-15T05:26:59.145Z,1.53
2023-04-15T05:27:59.097Z,1.62
2023-04-15T05:28:59.251Z,1.72
2023-04-15T05:29:59.126Z,1.81
2023-04-15T05:30:59.186Z,1.91
2023-04-15T05:31:59.086Z,2.00
2023-04-15T05:32:59.162Z,2.08
2023-04-15T05:33:59.084Z,2.14
2023-04-15T05:34:59.094Z,2.20
2023-04-15T05:35:59.056Z,2.23
2023-04-15T05:36:59.070Z,2.27
2023-04-15T05:37:59.037Z,2.30
2023-04-15T05:38:59.160Z,2.33
2023-04-15T05:39:58.995Z,2.35
2023-04-15T05:40:59.032Z,2.38
2023-04-15T05:41:58.973Z,2.42
2023-04-15T05:42:58.959Z,2.44
2023-04-15T05:43:58.992Z,2.46
2023-04-15T05:44:58.982Z,2.48
2023-04-15T05:45:58.989Z,2.51
2023-04-15T05:46:58.915Z,2.54
2023-04-15T05:47:58.992Z,2.56
2023-04-15T05:48:58.948Z,2.57
2023-04-15T05:49:58.896Z,2.58
2023-04-15T05:50:58.918Z,2.58
2023-04-15T05:51:58.870Z,2.60
2023-04-15T05:52:58.878Z,2.63
2023-04-15T05:53:58.897Z,2.65
2023-04-15T05:54:58.865Z,2.68
2023-04-15T05:55:58.919Z,2.71
2023-04-15T05:56:58.834Z,2.73
2023-04-15T05:57:58.836Z,2.74
2023-04-15T05:58:58.929Z,2.75
2023-04-15T05:59:58.787Z,2.76
2023-04-15T06:00:58.823Z,2.77
2023-04-15T06:01:58.773Z,2.77
2023-04-15T06:02:58.866Z,2.78
2023-04-15T06:03:58.863Z,2.79
2023-04-15T06:04:58.845Z,2.79
2023-04-15T06:05:58.734Z,2.78
2023-04-15T06:06:58.763Z,2.76
2023-04-15T06:07:58.726Z,2.74
2023-04-15T06:08:58.697Z,2.71
2023-04-15T06:09:58.728Z,2.68
2023-04-15T06:10:58.733Z,2.64
2023-04-15T06:11:58.704Z,2.58
2023-04-15T06:12:58.688Z,2.49
2023-04-15T06:13:58.662Z,2.39
2023-04-15T06:15:00.103Z,2.31
2023-04-15T06:15:58.657Z,2.27
2023-04-15T06:16:58.656Z,2.24
2023-04-15T06:17:58.682Z,2.24
2023-04-15T06:18:58.716Z,2.25
2023-04-15T06:19:58.590Z,2.28
2023-04-15T06:20:58.612Z,2.32
2023-04-15T06:21:58.586Z,2.37
2023-04-15T06:22:58.849Z,2.43
2023-04-15T06:23:58.568Z,2.50
2023-04-15T06:24:58.563Z,2.57
2023-04-15T06:25:58.552Z,2.64
2023-04-15T06:26:58.565Z,2.70
2023-04-15T06:27:58.531Z,2.78
2023-04-15T06:28:58.704Z,2.85
2023-04-15T06:29:58.499Z,2.94
2023-04-15T06:30:58.488Z,3.01
2023-04-15T06:31:58.558Z,3.06
2023-04-15T06:32:58.499Z,3.09
2023-04-15T06:33:58.466Z,3.14
2023-04-15T06:34:58.479Z,3.19
2023-04-15T06:35:58.487Z,3.25
2023-04-15T06:36:58.435Z,3.33
2023-04-15T06:37:58.433Z,3.42
2023-04-15T06:38:58.415Z,3.53
2023-04-15T06:39:58.406Z,3.64
2023-04-15T06:40:58.405Z,3.75
2023-04-15T06:41:58.418Z,3.84
2023-04-15T06:42:58.384Z,3.93
2023-04-15T06:43:58.366Z,4.04
2023-04-15T06:44:58.346Z,4.16
2023-04-15T06:45:58.427Z,4.28
2023-04-15T06:46:58.338Z,4.41
2023-04-15T06:47:58.371Z,4.54
2023-04-15T06:48:58.315Z,4.65
2023-04-15T06:49:58.306Z,4.75
2023-04-15T06:50:58.334Z,4.81
2023-04-15T06:51:58.318Z,4.81
2023-04-15T06:52:58.278Z,4.79
2023-04-15T06:53:58.310Z,4.77
2023-04-15T06:54:58.306Z,4.79
2023-04-15T06:55:58.242Z,4.80
2023-04-15T06:56:58.262Z,4.78
2023-04-15T06:57:58.271Z,4.78
2023-04-15T06:58:58.220Z,4.80
2023-04-15T06:59:58.189Z,4.86
2023-04-15T07:00:58.232Z,4.93
2023-04-15T07:01:58.274Z,4.97
2023-04-15T07:02:58.215Z,5.01
2023-04-15T07:03:58.154Z,5.06
2023-04-15T07:04:58.179Z,5.12
2023-04-15T07:05:58.131Z,5.21
2023-04-15T07:06:58.133Z,5.35
2023-04-15T07:07:58.115Z,5.47
2023-04-15T07:08:58.097Z,5.55
2023-04-15T07:09:58.125Z,5.62
2023-04-15T07:10:58.069Z,5.69
2023-04-15T07:11:58.072Z,5.74
2023-04-15T07:12:58.121Z,5.80
2023-04-15T07:13:58.051Z,5.86
2023-04-15T07:14:58.038Z,5.93
2023-04-15T07:15:58.031Z,5.99
2023-04-15T07:16:58.072Z,6.04
2023-04-15T07:17:58.078Z,6.12
2023-04-15T07:18:57.991Z,6.23
2023-04-15T07:19:57.986Z,6.34
2023-04-15T07:20:57.978Z,6.41
2023-04-15T07:21:57.964Z,6.46
2023-04-15T07:22:57.946Z,6.47
2023-04-15T07:23:57.983Z,6.50
2023-04-15T07:24:57.941Z,6.52
2023-04-15T07:25:57.922Z,6.56
2023-04-15T07:26:59.414Z,6.64
2023-04-15T07:27:57.896Z,6.72
2023-04-15T07:28:57.915Z,6.74
2023-04-15T07:29:57.902Z,6.71
2023-04-15T07:30:57.896Z,6.70
2023-04-15T07:31:57.870Z,6.75
2023-04-15T07:32:57.895Z,6.82
2023-04-15T07:33:57.890Z,6.88
2023-04-15T07:34:57.858Z,6.91
2023-04-15T07:35:57.812Z,6.94
2023-04-15T07:36:57.815Z,6.98
2023-04-15T07:37:57.809Z,6.97
2023-04-15T07:38:57.818Z,6.92
2023-04-15T07:39:57.778Z,6.85
2023-04-15T07:40:57.840Z,6.83
2023-04-15T07:41:57.798Z,6.87
2023-04-15T07:42:57.749Z,6.98
2023-04-15T07:43:57.750Z,7.09
2023-04-15T07:44:57.727Z,7.16
2023-04-15T07:45:57.823Z,7.21
2023-04-15T07:46:57.708Z,7.22
2023-04-15T07:47:57.713Z,7.22
2023-04-15T07:48:57.738Z,7.23
2023-04-15T07:49:57.687Z,7.28
2023-04-15T07:50:57.665Z,7.34
2023-04-15T07:51:57.674Z,7.43
2023-04-15T07:52:57.668Z,7.48
2023-04-15T07:53:57.628Z,7.50
2023-04-15T07:54:57.644Z,7.53
2023-04-15T07:55:57.640Z,7.55
2023-04-15T07:56:57.603Z,7.59
2023-04-15T07:57:57.614Z,7.60
2023-04-15T07:58:57.624Z,7.62
2023-04-15T07:59:57.578Z,7.67
2023-04-15T08:00:57.577Z,7.80
2023-04-15T08:01:57.621Z,7.99
2023-04-15T08:02:57.726Z,8.19
2023-04-15T08:03:57.634Z,8.34
2023-04-15T08:04:57.588Z,8.40
2023-04-15T08:05:57.508Z,8.41
2023-04-15T08:06:57.506Z,8.44
2023-04-15T08:07:57.508Z,8.50
2023-04-15T08:08:57.625Z,8.55
2023-04-15T08:09:57.547Z,8.63
2023-04-15T08:10:57.485Z,8.71
2023-04-15T08:11:57.454Z,8.77
2023-04-15T08:12:57.440Z,8.82
2023-04-15T08:13:57.442Z,8.85
2023-04-15T08:14:57.432Z,8.87
2023-04-15T08:15:57.497Z,8.92
2023-04-15T08:16:57.477Z,8.93
2023-04-15T08:17:57.429Z,8.91
2023-04-15T08:18:57.420Z,8.92
2023-04-15T08:19:57.681Z,8.91
2023-04-15T08:20:57.352Z,8.89
2023-04-15T08:21:57.434Z,8.88
2023-04-15T08:22:57.360Z,8.89
2023-04-15T08:23:57.365Z,8.94
2023-04-15T08:24:57.309Z,9.02
2023-04-15T08:25:57.324Z,9.11
2023-04-15T08:26:57.295Z,9.20
2023-04-15T08:27:57.395Z,9.23
2023-04-15T08:28:57.426Z,9.20
2023-04-15T08:29:57.260Z,9.09
2023-04-15T08:30:57.268Z,8.99
2023-04-15T08:31:57.370Z,8.90
2023-04-15T08:32:57.304Z,8.81
2023-04-15T08:33:57.250Z,8.75
2023-04-15T08:34:57.216Z,8.76
2023-04-15T08:35:57.191Z,8.80
2023-04-15T08:36:57.185Z,8.83
2023-04-15T08:37:57.203Z,8.87
2023-04-15T08:38:57.207Z,8.92
2023-04-15T08:39:57.151Z,8.99
2023-04-15T08:40:57.150Z,9.05
2023-04-15T08:41:57.167Z,9.05
2023-04-15T08:42:57.129Z,9.04
2023-04-15T08:43:57.114Z,9.03
2023-04-15T08:44:57.108Z,9.01
2023-04-15T08:45:57.088Z,8.98
2023-04-15T08:46:57.165Z,8.97
2023-04-15T08:47:57.137Z,9.04
2023-04-15T08:48:57.069Z,9.13
2023-04-15T08:49:57.075Z,9.22
2023-04-15T08:50:57.048Z,9.36
2023-04-15T08:51:57.036Z,9.47
2023-04-15T08:52:57.031Z,9.51
2023-04-15T08:53:57.028Z,9.54
2023-04-15T08:54:57.008Z,9.64
2023-04-15T08:55:56.995Z,9.82
2023-04-15T08:56:56.999Z,9.99
2023-04-15T08:57:56.987Z,10.11
2023-04-15T08:58:57.033Z,10.10
2023-04-15T08:59:56.952Z,10.04
2023-04-15T09:00:56.962Z,10.04
2023-04-15T09:01:56.974Z,10.11
2023-04-15T09:02:56.986Z,10.18
2023-04-15T09:03:56.964Z,10.23
2023-04-15T09:04:56.913Z,10.28
2023-04-15T09:05:56.933Z,10.32
2023-04-15T09:06:56.879Z,10.31
2023-04-15T09:07:56.889Z,10.22
2023-04-15T09:08:56.875Z,10.05
2023-04-15T09:09:56.906Z,9.88
2023-04-15T09:10:56.835Z,9.80
2023-04-15T09:11:56.837Z,9.80
2023-04-15T09:12:56.812Z,9.89
2023-04-15T09:13:56.815Z,10.07
2023-04-15T09:14:56.795Z,10.19
2023-04-15T09:15:56.802Z,10.22
2023-04-15T09:16:56.894Z,10.32
2023-04-15T09:17:56.834Z,10.39
2023-04-15T09:18:56.764Z,10.33
2023-04-15T09:19:56.769Z,10.22
2023-04-15T09:20:56.740Z,10.12
2023-04-15T09:21:58.969Z,10.03
2023-04-15T09:22:56.793Z,9.95
2023-04-15T09:23:56.707Z,9.90
2023-04-15T09:24:56.705Z,9.87
2023-04-15T09:25:56.680Z,9.89
2023-04-15T09:26:56.673Z,10.02
2023-04-15T09:27:56.697Z,10.25
2023-04-15T09:28:56.680Z,10.50
2023-04-15T09:29:56.650Z,10.65
2023-04-15T09:30:56.683Z,10.71
2023-04-15T09:31:56.616Z,10.71
2023-04-15T09:32:56.676Z,10.69
2023-04-15T09:33:56.630Z,10.70
2023-04-15T09:34:56.580Z,10.67
2023-04-15T09:35:56.573Z,10.53
2023-04-15T09:36:56.572Z,10.39
2023-04-15T09:37:56.565Z,10.34
2023-04-15T09:38:56.565Z,10.34
2023-04-15T09:39:56.537Z,10.46
2023-04-15T09:40:56.521Z,10.62
2023-04-15T09:41:56.526Z,10.77
2023-04-15T09:42:56.532Z,10.88
2023-04-15T09:43:56.512Z,10.96
2023-04-15T09:44:56.498Z,10.99
2023-04-15T09:45:56.513Z,10.95
2023-04-15T09:46:56.457Z,10.92
2023-04-15T09:47:57.687Z,10.98
2023-04-15T09:48:56.466Z,10.98
2023-04-15T09:49:56.548Z,10.88
2023-04-15T09:50:56.434Z,10.77
2023-04-15T09:52:05.086Z,10.72
2023-04-15T09:52:56.439Z,10.66
2023-04-15T09:53:56.417Z,10.59
2023-04-15T09:54:56.386Z,10.49
2023-04-15T09:55:56.390Z,10.37
2023-04-15T09:56:56.358Z,10.36
2023-04-15T09:57:56.362Z,10.33
2023-04-15T09:58:56.349Z,10.28
2023-04-15T09:59:56.334Z,10.27
2023-04-15T10:00:56.358Z,10.28
2023-04-15T10:01:56.385Z,10.29
2023-04-15T10:02:56.446Z,10.34
2023-04-15T10:03:56.350Z,10.42
2023-04-15T10:04:56.292Z,10.51
2023-04-15T10:05:56.323Z,10.61
2023-04-15T10:06:56.267Z,10.63
2023-04-15T10:07:56.249Z,10.57
2023-04-15T10:08:56.237Z,10.51
2023-04-15T10:09:56.302Z,10.46
2023-04-15T10:10:56.234Z,10.47
2023-04-15T10:11:56.277Z,10.63
2023-04-15T10:12:56.191Z,10.81
2023-04-15T10:13:56.195Z,10.94
2023-04-15T10:14:56.174Z,10.96
2023-04-15T10:15:56.217Z,10.92
2023-04-15T10:16:56.168Z,10.85
2023-04-15T10:17:56.228Z,10.83
2023-04-15T10:18:56.133Z,10.84
2023-04-15T10:19:56.146Z,10.82
2023-04-15T10:20:56.118Z,10.80
2023-04-15T10:21:56.153Z,10.86
2023-04-15T10:22:56.096Z,10.97
2023-04-15T10:23:56.088Z,11.04
2023-04-15T10:24:56.074Z,11.12
2023-04-15T10:25:56.123Z,11.10
2023-04-15T10:26:56.105Z,10.97
2023-04-15T10:27:56.079Z,10.87
2023-04-15T10:28:56.046Z,10.89
2023-04-15T10:29:56.058Z,11.04
2023-04-15T10:30:56.138Z,11.20
2023-04-15T10:31:56.136Z,11.42
2023-04-15T10:32:56.129Z,11.70
2023-04-15T10:33:55.989Z,11.95
2023-04-15T10:34:55.991Z,12.08
2023-04-15T10:35:55.963Z,11.92
2023-04-15T10:36:55.954Z,11.60
2023-04-15T10:37:55.949Z,11.39
2023-04-15T10:38:55.928Z,11.33
2023-04-15T10:39:55.920Z,11.31
2023-04-15T10:40:55.924Z,11.26
2023-04-15T10:41:55.926Z,11.23
2023-04-15T10:42:55.882Z,11.27
2023-04-15T10:43:55.891Z,11.30
2023-04-15T10:44:55.869Z,11.22
2023-04-15T10:45:55.877Z,11.13
2023-04-15T10:46:55.923Z,11.08
2023-04-15T10:47:55.882Z,11.09
2023-04-15T10:48:55.889Z,11.17
2023-04-15T10:49:55.840Z,11.28
2023-04-15T10:50:55.816Z,11.42
2023-04-15T10:51:55.800Z,11.58
2023-04-15T10:52:55.813Z,11.75
2023-04-15T10:53:55.870Z,11.87
2023-04-15T10:54:55.863Z,12.07
2023-04-15T10:55:55.751Z,12.45
2023-04-15T10:56:55.745Z,12.83
2023-04-15T10:57:55.747Z,12.92
2023-04-15T10:58:55.790Z,12.64
2023-04-15T10:59:55.719Z,12.34
2023-04-15T11:00:55.730Z,12.17
2023-04-15T11:01:55.757Z,12.14
2023-04-15T11:02:55.780Z,12.16
2023-04-15T11:03:55.962Z,12.15
2023-04-15T11:04:55.809Z,12.05
2023-04-15T11:05:55.656Z,11.81
2023-04-15T11:06:55.648Z,11.58
2023-04-15T11:07:55.775Z,11.41
2023-04-15T11:08:55.637Z,11.31
2023-04-15T11:09:55.613Z,11.29
2023-04-15T11:10:55.597Z,11.24
2023-04-15T11:11:55.587Z,11.15
2023-04-15T11:12:55.599Z,11.13
2023-04-15T11:13:55.584Z,11.16
2023-04-15T11:14:55.580Z,11.15
2023-04-15T11:15:55.554Z,11.28
2023-04-15T11:16:55.542Z,11.53
2023-04-15T11:17:55.547Z,11.58
2023-04-15T11:18:55.530Z,11.49
2023-04-15T11:19:55.507Z,11.43
2023-04-15T11:20:55.519Z,11.46
2023-04-15T11:21:55.480Z,11.55
2023-04-15T11:23:14.495Z,11.56
2023-04-15T11:23:55.487Z,11.45
2023-04-15T11:24:55.453Z,11.33
2023-04-15T11:25:55.442Z,11.21
2023-04-15T11:26:55.451Z,11.09
2023-04-15T11:27:55.433Z,10.95
2023-04-15T11:28:55.415Z,10.85
2023-04-15T11:29:55.419Z,10.87
2023-04-15T11:30:55.409Z,10.94
2023-04-15T11:31:55.466Z,10.95
2023-04-15T11:32:55.437Z,10.88
2023-04-15T11:33:55.365Z,10.81
2023-04-15T11:34:55.345Z,10.81
2023-04-15T11:35:55.433Z,10.86
2023-04-15T11:36:55.334Z,10.85
2023-04-15T11:37:55.345Z,10.76
2023-04-15T11:38:55.328Z,10.70
2023-04-15T11:39:55.309Z,10.64
2023-04-15T11:40:55.356Z,10.56
2023-04-15T11:41:55.281Z,10.47
2023-04-15T11:42:55.271Z,10.39
2023-04-15T11:43:55.279Z,10.33
2023-04-15T11:44:55.275Z,10.32
2023-04-15T11:45:55.294Z,10.31
2023-04-15T11:46:55.237Z,10.25
2023-04-15T11:47:55.310Z,10.22
2023-04-15T11:48:55.275Z,10.26
2023-04-15T11:49:55.337Z,10.30
2023-04-15T11:50:55.197Z,10.35
2023-04-15T11:51:55.189Z,10.47
2023-04-15T11:52:55.177Z,10.66
2023-04-15T11:53:55.179Z,10.90
2023-04-15T11:54:55.154Z,11.15
2023-04-15T11:55:55.149Z,11.37
2023-04-15T11:56:55.129Z,11.55
2023-04-15T11:57:55.150Z,11.69
2023-04-15T11:58:55.110Z,11.68
2023-04-15T11:59:55.160Z,11.58
2023-04-15T12:00:55.103Z,11.51
2023-04-15T12:01:55.199Z,11.47
2023-04-15T12:02:55.207Z,11.41
2023-04-15T12:03:55.186Z,11.22
2023-04-15T12:04:55.077Z,10.99
2023-04-15T12:05:55.102Z,10.85
2023-04-15T12:06:55.045Z,10.83
2023-04-15T12:07:55.019Z,10.79
2023-04-15T12:08:55.050Z,10.69
2023-04-15T12:09:54.993Z,10.52
2023-04-15T12:10:54.995Z,10.34
2023-04-15T12:11:55.052Z,10.24
2023-04-15T12:12:54.958Z,10.25
2023-04-15T12:13:55.009Z,10.30
2023-04-15T12:14:54.953Z,10.25
2023-04-15T12:15:54.943Z,10.17
2023-04-15T12:16:54.943Z,10.14
2023-04-15T12:17:55.002Z,10.17
2023-04-15T12:18:54.909Z,10.25
2023-04-15T12:19:54.915Z,10.24
2023-04-15T12:20:54.871Z,10.06
2023-04-15T12:21:54.865Z,9.83
2023-04-15T12:22:54.877Z,9.70
2023-04-15T12:23:54.861Z,9.57
2023-04-15T12:24:54.897Z,9.40
2023-04-15T12:25:54.824Z,9.30
2023-04-15T12:26:54.819Z,9.22
2023-04-15T12:27:54.808Z,9.09
2023-04-15T12:28:54.803Z,8.92
2023-04-15T12:29:54.790Z,8.78
2023-04-15T12:30:54.829Z,8.76
2023-04-15T12:31:54.767Z,8.84
2023-04-15T12:32:54.760Z,8.87
2023-04-15T12:33:54.747Z,8.83
2023-04-15T12:34:54.758Z,8.74
2023-04-15T12:35:54.736Z,8.65
2023-04-15T12:36:54.739Z,8.58
2023-04-15T12:37:54.782Z,8.52
2023-04-15T12:38:54.695Z,8.45
2023-04-15T12:39:54.697Z,8.39
2023-04-15T12:40:54.716Z,8.35
2023-04-15T12:41:54.666Z,8.32
2023-04-15T12:42:54.670Z,8.37
2023-04-15T12:43:54.655Z,8.49
2023-04-15T12:44:54.651Z,8.57
2023-04-15T12:45:54.648Z,8.58
2023-04-15T12:46:54.837Z,8.60
2023-04-15T12:47:54.684Z,8.63
2023-04-15T12:48:54.602Z,8.62
2023-04-15T12:49:54.598Z,8.62
2023-04-15T12:50:54.570Z,8.60
2023-04-15T12:51:54.564Z,8.57
2023-04-15T12:52:54.670Z,8.50
2023-04-15T12:53:54.561Z,8.46
2023-04-15T12:54:54.532Z,8.51
2023-04-15T12:55:54.530Z,8.64
2023-04-15T12:56:54.510Z,8.79
2023-04-15T12:57:54.534Z,8.92
2023-04-15T12:58:54.502Z,9.06
2023-04-15T12:59:54.528Z,9.20
2023-04-15T13:00:54.486Z,9.34
2023-04-15T13:01:54.796Z,9.40
2023-04-15T13:02:54.581Z,9.41
2023-04-15T13:03:54.556Z,9.43
2023-04-15T13:04:54.593Z,9.48
2023-04-15T13:05:54.432Z,9.55
2023-04-15T13:06:54.452Z,9.61
2023-04-15T13:07:54.413Z,9.66
2023-04-15T13:08:58.399Z,9.69
2023-04-15T13:09:54.384Z,9.76
2023-04-15T13:10:54.392Z,9.81